Kojnas, Russia
Current Conditions -  °F | °C
As of 12:00 PM on Thursday 23 Oct 2014 (Local Time) from ULAA Reporting Station
Snow Showers Snow Showers  
Wind Chill: 21°   Ceiling: 300
Heat Index: 30°   Visibility: 0.93mi
Dew Point: 28°   Wind: 11mph
Humidity: 93%   Direction: 10°N
Pressure: 30.45"   Gusts: 20mph
Location:  64.75°N, 47.65°E
Report Text: ULAA 230900Z 01005G09MPS 340V050 1500 SHSN OVC003CB M01/M02 Q1031 TEMPO 0600 +SHSN BKN003CB RMK QBB100 QFE772/1029 SC055
Loading
Personal Weather Stations






























Interactive Weather Map
Tropical Storm Tracking
New forecast layout! Learn more

10-Day Weather Forecast

Advertisements
Track Severe Weather on mobile